M I D A S
Marine Information and Data Acquisition System
Tripno 2149 of the Zeeleeuw from 2011-07-20 06:56:54 to 2011-07-20 15:44:48
Back to CruiseResearch ActivitiesStationsMapUnderway DataData graphs

EquipmentUnitsComment
TimeDGPSUTC
LatitudeDGPSDM.mWGS84
LongitudeDGPSDM.mWGS84
HeadingGyrodeg 
SOGDGPSknotsSpeed over ground
COGDGPSdegCourse over ground
DepthEcho soundermeters200 kHz
Missing or incorrect values are displayed as -999
Navigation data collected by the RV Zeeleeuw from 2011-07-20 06:46:38 to 2011-07-20 16:07:07
                                                                                    Next 1000 lines
Time Latitude Longitude Heading SOG COG Depth
2011-07-20 06:46:48 51°13.635 2°56.019 127.9 -999 144 7.8
2011-07-20 06:46:52 51°13.635 2°56.019 127.9 0.1 175 7.8
2011-07-20 06:46:58 51°13.635 2°56.019 127.9 -999 64 5.8
2011-07-20 06:47:03 51°13.635 2°56.019 127.9 -999 51 7.8
2011-07-20 06:47:08 51°13.635 2°56.019 127.9 -999 7 7.8
2011-07-20 06:47:12 51°13.635 2°56.019 127.9 -999 162 5.8
2011-07-20 06:47:17 51°13.635 2°56.019 127.9 -999 187 7.8
2011-07-20 06:47:23 51°13.635 2°56.019 127.9 -999 42 7.8
2011-07-20 06:47:28 51°13.635 2°56.019 127.9 -999 173 5.8
2011-07-20 06:47:32 51°13.635 2°56.019 127.9 0.1 174 7.8
2011-07-20 06:47:37 51°13.635 2°56.019 127.9 0.1 177 7.8
2011-07-20 06:47:42 51°13.635 2°56.019 127.9 0.1 167 5.8
2011-07-20 06:47:48 51°13.635 2°56.019 127.8 0.1 169 7.8
2011-07-20 06:47:52 51°13.635 2°56.019 127.8 -999 152 7.8
2011-07-20 06:47:57 51°13.635 2°56.019 127.8 -999 44 5.8
2011-07-20 06:48:03 51°13.636 2°56.019 127.8 -999 5 7.8
2011-07-20 06:48:08 51°13.636 2°56.02 127.8 -999 30 7.8
2011-07-20 06:48:13 51°13.636 2°56.02 127.8 -999 47 5.8
2011-07-20 06:48:18 51°13.636 2°56.02 127.8 -999 159 7.8
2011-07-20 06:48:23 51°13.636 2°56.02 127.8 -999 144 7.8
2011-07-20 06:48:27 51°13.636 2°56.02 127.8 -999 153 7.8
2011-07-20 06:48:33 51°13.636 2°56.02 127.8 -999 8 7.8
2011-07-20 06:48:37 51°13.636 2°56.02 127.8 -999 176 7.8
2011-07-20 06:48:42 51°13.636 2°56.02 127.8 -999 88 5.8
2011-07-20 06:48:47 51°13.636 2°56.02 127.7 -999 134 7.8
2011-07-20 06:48:52 51°13.636 2°56.02 127.7 -999 95 7.8
2011-07-20 06:48:57 51°13.636 2°56.02 127.7 -999 90 5.8
2011-07-20 06:49:02 51°13.636 2°56.02 127.7 -999 145 7.8
2011-07-20 06:49:07 51°13.636 2°56.02 127.7 -999 182 7.8
2011-07-20 06:49:13 51°13.636 2°56.02 127.7 -999 148 5.8
2011-07-20 06:49:18 51°13.636 2°56.02 127.7 -999 161 7.8
2011-07-20 06:49:22 51°13.636 2°56.02 127.7 -999 146 7.8
2011-07-20 06:49:28 51°13.636 2°56.02 127.7 -999 128 7.8
2011-07-20 06:49:33 51°13.636 2°56.02 127.7 -999 146 7.8
2011-07-20 06:49:38 51°13.636 2°56.02 127.7 -999 105 7.8
2011-07-20 06:49:42 51°13.636 2°56.02 127.7 -999 124 5.8
2011-07-20 06:49:48 51°13.636 2°56.019 127.7 -999 152 7.8
2011-07-20 06:49:53 51°13.636 2°56.019 127.7 -999 359 7.8
2011-07-20 06:49:58 51°13.636 2°56.019 127.7 -999 312 5.8
2011-07-20 06:50:02 51°13.636 2°56.019 127.7 -999 34 7.8
2011-07-20 06:50:07 51°13.636 2°56.019 127.7 -999 170 7.8
2011-07-20 06:50:13 51°13.636 2°56.019 127.7 -999 177 5.8
2011-07-20 06:50:18 51°13.636 2°56.019 127.7 -999 177 7.8
2011-07-20 06:50:22 51°13.636 2°56.019 127.7 -999 122 7.7
2011-07-20 06:50:28 51°13.636 2°56.019 127.7 0.1 24 5.8
2011-07-20 06:50:33 51°13.636 2°56.019 127.7 0.1 21 7.8
2011-07-20 06:50:38 51°13.636 2°56.019 127.7 -999 127 7.8
2011-07-20 06:50:42 51°13.636 2°56.019 127.6 -999 26 5.8
2011-07-20 06:50:48 51°13.636 2°56.019 127.6 -999 34 7.7
2011-07-20 06:50:53 51°13.636 2°56.019 127.6 0.1 178 7.7
2011-07-20 06:50:58 51°13.636 2°56.019 127.6 -999 155 7.7
2011-07-20 06:51:03 51°13.636 2°56.019 127.6 -999 135 7.7
2011-07-20 06:51:07 51°13.636 2°56.019 127.6 -999 150 7.7
2011-07-20 06:51:13 51°13.636 2°56.019 127.6 -999 157 7.7
2011-07-20 06:51:18 51°13.636 2°56.019 127.6 -999 173 7.7
2011-07-20 06:51:23 51°13.636 2°56.019 127.6 -999 171 7.7
2011-07-20 06:51:27 51°13.636 2°56.019 127.6 -999 97 7.7
2011-07-20 06:51:33 51°13.636 2°56.019 127.6 -999 92 7.7
2011-07-20 06:51:38 51°13.636 2°56.019 127.6 -999 138 7.7
2011-07-20 06:51:43 51°13.636 2°56.019 127.6 0.1 178 7.7
2011-07-20 06:51:47 51°13.636 2°56.019 127.5 0.1 166 7.7
2011-07-20 06:51:52 51°13.636 2°56.019 127.5 -999 131 7.7
2011-07-20 06:51:57 51°13.636 2°56.019 127.5 -999 19 7.7
2011-07-20 06:52:03 51°13.636 2°56.019 127.5 -999 24 7.7
2011-07-20 06:52:07 51°13.636 2°56.019 127.5 -999 123 7.8
2011-07-20 06:52:12 51°13.636 2°56.019 127.5 -999 185 7.8
2011-07-20 06:52:18 51°13.636 2°56.019 127.4 -999 169 5.8
2011-07-20 06:52:23 51°13.636 2°56.019 127.4 -999 162 7.8
2011-07-20 06:52:28 51°13.636 2°56.019 127.4 -999 156 7.7
2011-07-20 06:52:33 51°13.636 2°56.019 127.4 -999 160 5.8
2011-07-20 06:52:38 51°13.636 2°56.019 127.4 -999 159 7.7
2011-07-20 06:52:43 51°13.636 2°56.019 127.4 -999 143 7.8
2011-07-20 06:52:48 51°13.636 2°56.019 127.4 -999 166 7.7
2011-07-20 06:52:53 51°13.636 2°56.019 127.4 0.1 177 7.7
2011-07-20 06:52:57 51°13.636 2°56.019 127.3 -999 41 7.7
2011-07-20 06:53:02 51°13.637 2°56.019 127.3 -999 11 7.7
2011-07-20 06:53:08 51°13.637 2°56.019 127.3 -999 10 -999
2011-07-20 06:53:12 51°13.637 2°56.019 127.3 -999 1 7.7
2011-07-20 06:53:17 51°13.637 2°56.019 127.3 -999 162 7.7
2011-07-20 06:53:23 51°13.636 2°56.019 127.3 0.1 177 7.7
2011-07-20 06:53:28 51°13.636 2°56.019 127.3 0.1 168 7.7
2011-07-20 06:53:33 51°13.637 2°56.019 127.3 0.1 151 7.7
2011-07-20 06:53:38 51°13.637 2°56.019 127.3 -999 44 7.7
2011-07-20 06:53:43 51°13.637 2°56.019 127.3 -999 154 7.7
2011-07-20 06:53:48 51°13.636 2°56.019 127.3 -999 163 7.7
2011-07-20 06:53:53 51°13.636 2°56.019 127.2 -999 157 7.7
2011-07-20 06:53:57 51°13.637 2°56.019 127.2 -999 143 7.7
2011-07-20 06:54:03 51°13.636 2°56.019 127.2 -999 167 5.8
2011-07-20 06:54:08 51°13.636 2°56.019 127.2 -999 160 7.7
2011-07-20 06:54:13 51°13.636 2°56.019 127.2 -999 156 7.7
2011-07-20 06:54:17 51°13.636 2°56.019 127.2 -999 173 7.7
2011-07-20 06:54:22 51°13.636 2°56.019 127.2 -999 131 7.7
2011-07-20 06:54:27 51°13.637 2°56.019 127.2 -999 39 7.7
2011-07-20 06:54:33 51°13.636 2°56.019 127.2 -999 355 5.7
2011-07-20 06:54:37 51°13.637 2°56.018 127.2 -999 353 7.7
2011-07-20 06:54:43 51°13.636 2°56.019 127.2 -999 144 7.7
2011-07-20 06:54:48 51°13.636 2°56.019 127.2 -999 158 5.8
2011-07-20 06:54:53 51°13.636 2°56.019 127.1 0.1 164 7.7
2011-07-20 06:54:58 51°13.636 2°56.019 127.1 -999 162 7.6
2011-07-20 06:55:02 51°13.636 2°56.019 127.1 -999 187 5.8
2011-07-20 06:55:08 51°13.636 2°56.019 127.1 0.1 171 7.7
2011-07-20 06:55:13 51°13.636 2°56.019 127.1 -999 134 7.7
2011-07-20 06:55:18 51°13.636 2°56.019 127.1 -999 167 5.7
2011-07-20 06:55:22 51°13.636 2°56.019 127.1 -999 153 7.7
2011-07-20 06:55:27 51°13.636 2°56.019 127.1 -999 142 7.7
2011-07-20 06:55:32 51°13.636 2°56.019 127.1 -999 76 5.8
2011-07-20 06:55:38 51°13.636 2°56.019 127 -999 156 7.7
2011-07-20 06:55:43 51°13.636 2°56.019 127 -999 158 7.7
2011-07-20 06:55:48 51°13.636 2°56.019 127 -999 37 7.7
2011-07-20 06:55:53 51°13.636 2°56.019 127 -999 175 7.7
2011-07-20 06:55:58 51°13.636 2°56.02 127 -999 174 7.7
2011-07-20 06:56:03 51°13.636 2°56.02 127 -999 182 5.8
2011-07-20 06:56:07 51°13.636 2°56.021 127 -999 190 7.7
2011-07-20 06:56:13 51°13.636 2°56.021 127 -999 65 7.7
2011-07-20 06:56:17 51°13.636 2°56.021 127 -999 56 7.7
2011-07-20 06:56:23 51°13.636 2°56.021 127 -999 20 7.7
2011-07-20 06:56:27 51°13.636 2°56.021 127 -999 17 7.7
2011-07-20 06:56:32 51°13.636 2°56.021 126.9 -999 108 5.8
2011-07-20 06:56:38 51°13.636 2°56.021 126.9 -999 105 7.7
2011-07-20 06:56:43 51°13.637 2°56.022 126.9 -999 307 7.7
2011-07-20 06:56:48 51°13.637 2°56.022 126.9 -999 14 7.7
2011-07-20 06:56:52 51°13.637 2°56.022 126.9 -999 17 7.7
2011-07-20 06:56:58 51°13.637 2°56.022 126.9 -999 10 7.7
2011-07-20 06:57:03 51°13.637 2°56.022 126.9 0.1 10 7.6
2011-07-20 06:57:08 51°13.637 2°56.022 126.9 -999 142 5.7
2011-07-20 06:57:12 51°13.637 2°56.022 126.9 -999 149 7.6
2011-07-20 06:57:18 51°13.636 2°56.022 126.9 0.1 166 7.7
2011-07-20 06:57:23 51°13.636 2°56.022 126.8 0.1 152 5.7
2011-07-20 06:57:28 51°13.636 2°56.022 126.7 0.1 154 7.6
2011-07-20 06:57:32 51°13.636 2°56.02 126.6 0.1 138 7.6
2011-07-20 06:57:37 51°13.636 2°56.019 126.6 -999 128 5.8
2011-07-20 06:57:43 51°13.636 2°56.019 126.4 -999 75 7.7
2011-07-20 06:57:48 51°13.636 2°56.019 126.3 -999 81 7.6
2011-07-20 06:57:52 51°13.636 2°56.019 126.2 -999 132 5.7
2011-07-20 06:57:57 51°13.636 2°56.019 126 -999 113 5.7
2011-07-20 06:58:03 51°13.636 2°56.019 125.9 -999 37 7.6
2011-07-20 06:58:08 51°13.636 2°56.019 125.8 -999 13 7.6
2011-07-20 06:58:12 51°13.636 2°56.019 125.7 -999 13 7.6
2011-07-20 06:58:17 51°13.636 2°56.019 125.7 -999 349 7.6
2011-07-20 06:58:23 51°13.636 2°56.019 125.7 -999 329 7.6
2011-07-20 06:58:28 51°13.636 2°56.019 125.7 -999 324 7.7
2011-07-20 06:58:32 51°13.636 2°56.019 125.7 -999 279 7.6
2011-07-20 06:58:38 51°13.636 2°56.019 125.7 -999 169 7.6
2011-07-20 06:58:43 51°13.636 2°56.019 125.7 -999 173 7.7
2011-07-20 06:58:48 51°13.636 2°56.019 125.8 -999 140 7.7
2011-07-20 06:58:53 51°13.636 2°56.019 125.8 -999 53 7.7
2011-07-20 06:58:57 51°13.636 2°56.019 125.9 0.1 104 -999
2011-07-20 06:59:03 51°13.636 2°56.019 125.9 0.1 101 7.6
2011-07-20 06:59:08 51°13.636 2°56.019 125.7 0.1 116 7.7
2011-07-20 06:59:13 51°13.636 2°56.019 124.9 0.1 167 7.7
2011-07-20 06:59:17 51°13.636 2°56.019 123.6 -999 45 7.6
2011-07-20 06:59:23 51°13.636 2°56.019 122.7 -999 205 7.6
2011-07-20 06:59:28 51°13.636 2°56.019 122 0.1 175 7.6
2011-07-20 06:59:33 51°13.636 2°56.019 121.1 0.1 184 7.7
2011-07-20 06:59:37 51°13.636 2°56.019 120.2 0.1 179 7.6
2011-07-20 06:59:43 51°13.635 2°56.019 119.1 0.1 186 7.6
2011-07-20 06:59:47 51°13.635 2°56.019 118.2 0.1 185 7.6
2011-07-20 06:59:53 51°13.635 2°56.018 116.9 0.1 181 7.6
2011-07-20 06:59:58 51°13.635 2°56.018 116.1 0.1 184 7.6
2011-07-20 07:00:03 51°13.635 2°56.018 115 0.1 201 7.6
2011-07-20 07:00:08 51°13.635 2°56.018 113.9 0.1 183 5.7
2011-07-20 07:00:13 51°13.635 2°56.018 112.9 0.1 216 7.6
2011-07-20 07:00:18 51°13.635 2°56.018 111.9 0.1 266 7.6
2011-07-20 07:00:22 51°13.635 2°56.018 111.1 0.2 271 7.6
2011-07-20 07:00:27 51°13.635 2°56.017 110.5 0.5 287 5.7
2011-07-20 07:00:32 51°13.635 2°56.015 110.3 1 288 5.8
2011-07-20 07:00:38 51°13.636 2°56.011 110.1 1.5 288 7.8
2011-07-20 07:00:42 51°13.637 2°56.008 110.6 2 290 7.9
2011-07-20 07:00:48 51°13.639 2°56.002 111.1 2.5 292 -999
2011-07-20 07:00:54 51°13.641 2°55.995 112.1 2.9 294 -999
2011-07-20 07:01:00 51°13.643 2°55.987 112.7 3.4 295 -999
2011-07-20 07:01:06 51°13.646 2°55.978 113.1 3.7 296 -999
2011-07-20 07:01:11 51°13.648 2°55.97 113.3 4 296 -999
2011-07-20 07:01:16 51°13.651 2°55.962 113.3 4.3 296 -999
2011-07-20 07:01:21 51°13.653 2°55.953 113.5 4.5 296 -999
2011-07-20 07:01:26 51°13.656 2°55.943 113.5 4.6 295 -999
2011-07-20 07:01:31 51°13.659 2°55.934 113.5 4.8 296 -999
2011-07-20 07:01:35 51°13.661 2°55.926 113.6 4.9 294 -999
2011-07-20 07:01:40 51°13.664 2°55.916 113.6 4.8 293 -999
2011-07-20 07:01:46 51°13.667 2°55.905 113.4 4.6 292 -999
2011-07-20 07:01:52 51°13.67 2°55.894 113.3 4.4 292 -999
2011-07-20 07:01:56 51°13.672 2°55.887 113.3 4.3 294 -999
2011-07-20 07:02:01 51°13.674 2°55.878 114 4.2 293 -999
2011-07-20 07:02:06 51°13.676 2°55.87 115.2 4.2 294 -999
2011-07-20 07:02:11 51°13.679 2°55.862 117 4.2 297 -999
2011-07-20 07:02:16 51°13.682 2°55.853 118.7 4.3 297 -999
2011-07-20 07:02:21 51°13.685 2°55.845 120.3 4.2 300 -999
2011-07-20 07:02:26 51°13.688 2°55.837 121.9 4.3 301 -999
2011-07-20 07:02:31 51°13.691 2°55.829 123.5 4.3 303 -999
2011-07-20 07:02:36 51°13.694 2°55.821 124.5 4.3 303 -999
2011-07-20 07:02:41 51°13.698 2°55.813 125.7 4.3 304 -999
2011-07-20 07:02:46 51°13.701 2°55.805 126.4 4.4 306 -999
2011-07-20 07:02:51 51°13.705 2°55.797 126.9 4.5 307 -999
2011-07-20 07:02:56 51°13.709 2°55.789 127.8 4.6 307 -999
2011-07-20 07:03:02 51°13.714 2°55.779 128.4 4.7 309 -999
2011-07-20 07:03:07 51°13.718 2°55.77 128.7 4.8 308 -999
2011-07-20 07:03:12 51°13.722 2°55.762 129.2 4.9 309 -999
2011-07-20 07:03:17 51°13.727 2°55.753 130 5 311 -999
2011-07-20 07:03:21 51°13.731 2°55.747 131 5.1 311 -999
2011-07-20 07:03:27 51°13.737 2°55.736 132.2 5.2 312 -999
2011-07-20 07:03:31 51°13.74 2°55.73 133.2 5.3 313 -999
2011-07-20 07:03:36 51°13.746 2°55.721 134.4 5.4 315 -999
2011-07-20 07:03:41 51°13.751 2°55.713 135.5 5.5 315 -999
2011-07-20 07:03:46 51°13.757 2°55.704 136.9 5.5 317 -999
2011-07-20 07:03:51 51°13.762 2°55.696 138.7 5.7 319 -999
2011-07-20 07:03:56 51°13.769 2°55.688 140.3 5.7 321 -999
2011-07-20 07:04:01 51°13.775 2°55.68 142.2 5.8 322 -999
2011-07-20 07:04:05 51°13.78 2°55.674 143.8 5.8 323 -999
2011-07-20 07:04:11 51°13.788 2°55.665 145.2 5.8 325 -999
2011-07-20 07:04:16 51°13.795 2°55.658 146.6 5.9 326 -999
2011-07-20 07:04:21 51°13.802 2°55.65 148.2 5.9 328 -999
2011-07-20 07:04:26 51°13.809 2°55.644 149.9 5.9 330 -999
2011-07-20 07:04:31 51°13.816 2°55.638 151.5 5.9 332 -999
2011-07-20 07:04:36 51°13.823 2°55.632 153.9 5.8 334 -999
2011-07-20 07:04:41 51°13.831 2°55.627 155.9 5.8 336 -999
2011-07-20 07:04:46 51°13.838 2°55.622 157.7 5.8 338 -999
2011-07-20 07:04:51 51°13.845 2°55.618 159.9 5.7 340 -999
2011-07-20 07:04:56 51°13.853 2°55.614 162 5.7 342 -999
2011-07-20 07:05:01 51°13.86 2°55.61 164.6 5.6 344 -999
2011-07-20 07:05:07 51°13.869 2°55.607 166.7 5.6 346 -999
2011-07-20 07:05:11 51°13.875 2°55.605 168.9 5.5 348 -999
2011-07-20 07:05:16 51°13.883 2°55.603 170.7 5.3 350 -999
2011-07-20 07:05:21 51°13.89 2°55.601 173.3 5.3 352 -999
2011-07-20 07:05:26 51°13.897 2°55.6 175.5 5.1 354 -999
2011-07-20 07:05:31 51°13.904 2°55.599 177.6 5 356 -999
2011-07-20 07:05:37 51°13.912 2°55.599 179.3 4.9 358 -999
2011-07-20 07:05:41 51°13.917 2°55.598 181.7 4.8 -999 -999
2011-07-20 07:05:46 51°13.924 2°55.598 183.8 4.7 2 -999
2011-07-20 07:05:51 51°13.93 2°55.599 185.9 4.6 4 -999
2011-07-20 07:05:56 51°13.936 2°55.6 188.1 4.4 6 -999
2011-07-20 07:06:01 51°13.942 2°55.602 189.7 4.1 9 -999
2011-07-20 07:06:06 51°13.947 2°55.603 191.8 3.9 10 -999
2011-07-20 07:06:11 51°13.952 2°55.605 193.9 3.5 11 -999
2011-07-20 07:06:16 51°13.956 2°55.606 195.7 3.2 14 -999
2011-07-20 07:06:21 51°13.96 2°55.608 197.5 2.7 13 4.9
2011-07-20 07:06:26 51°13.962 2°55.609 199.1 1.9 16 11.8
2011-07-20 07:06:31 51°13.964 2°55.61 201.3 1.4 14 11.9
2011-07-20 07:06:36 51°13.966 2°55.61 204.4 0.8 16 11.8
2011-07-20 07:06:41 51°13.966 2°55.61 208.2 0.6 5 11.8
2011-07-20 07:06:45 51°13.967 2°55.61 212.5 0.4 349 11.8
2011-07-20 07:06:51 51°13.967 2°55.609 216.8 0.3 311 11.8
2011-07-20 07:06:56 51°13.968 2°55.608 221.1 0.5 277 11.8
2011-07-20 07:07:01 51°13.967 2°55.606 227.6 0.8 255 11.8
2011-07-20 07:07:06 51°13.967 2°55.604 233.1 1.1 258 11.9
2011-07-20 07:07:11 51°13.966 2°55.601 237.9 1.2 256 11.6
2011-07-20 07:07:16 51°13.966 2°55.598 242.5 1.5 263 11.6
2011-07-20 07:07:21 51°13.966 2°55.593 247.7 2.1 260 11.3
2011-07-20 07:07:26 51°13.966 2°55.587 253.1 2.7 271 11.4
2011-07-20 07:07:30 51°13.966 2°55.581 260.3 3 272 11.7
2011-07-20 07:07:35 51°13.967 2°55.575 268.7 3.1 284 11.7
2011-07-20 07:07:41 51°13.969 2°55.566 275 3.5 288 11.7
2011-07-20 07:07:46 51°13.972 2°55.557 283.3 4.1 297 11.7
2011-07-20 07:07:51 51°13.975 2°55.549 291 4.5 302 11.7
2011-07-20 07:07:55 51°13.979 2°55.542 299.6 4.9 311 11.7
2011-07-20 07:08:00 51°13.984 2°55.534 307.5 5.4 316 11.6
2011-07-20 07:08:05 51°13.99 2°55.526 313.3 5.8 319 11.6
2011-07-20 07:08:11 51°13.998 2°55.516 317.6 6.1 323 11.9
2011-07-20 07:08:15 51°14.004 2°55.509 321.3 6.4 325 11.6
2011-07-20 07:08:20 51°14.012 2°55.501 324.6 6.6 328 11.7
2011-07-20 07:08:25 51°14.02 2°55.494 328 6.7 331 11.6
2011-07-20 07:08:30 51°14.028 2°55.487 330.8 6.7 331 11.6
2011-07-20 07:08:35 51°14.036 2°55.48 331.6 6.7 332 11.6
2011-07-20 07:08:40 51°14.045 2°55.472 331.8 6.9 333 11.7
2011-07-20 07:08:46 51°14.056 2°55.465 333 7 335 11.7
2011-07-20 07:08:50 51°14.063 2°55.459 334.7 7.1 336 11.7
2011-07-20 07:08:56 51°14.075 2°55.451 335.5 7.4 336 11.7
2011-07-20 07:09:00 51°14.082 2°55.445 335.4 7.7 336 11.7
2011-07-20 07:09:05 51°14.092 2°55.438 335.3 7.8 335 11.7
2011-07-20 07:09:10 51°14.102 2°55.431 335.6 8 337 11.7
2011-07-20 07:09:15 51°14.112 2°55.423 335.6 8.1 334 11.6
2011-07-20 07:09:20 51°14.123 2°55.416 334.9 8.2 336 11.6
2011-07-20 07:09:24 51°14.131 2°55.409 335 8.3 335 11.6
2011-07-20 07:09:29 51°14.142 2°55.402 335.1 8.3 335 11.6
2011-07-20 07:09:34 51°14.152 2°55.394 335.4 8.4 336 11.6
2011-07-20 07:09:39 51°14.163 2°55.386 335.8 8.5 336 -999
2011-07-20 07:09:44 51°14.174 2°55.378 335.7 8.5 335 11.6
2011-07-20 07:09:48 51°14.182 2°55.372 334.9 8.6 335 11.6
2011-07-20 07:09:53 51°14.193 2°55.364 334.7 8.7 335 11.6
2011-07-20 07:09:58 51°14.204 2°55.355 334.8 8.7 334 11.6
2011-07-20 07:10:04 51°14.217 2°55.345 334.7 8.8 333 11.6
2011-07-20 07:10:08 51°14.226 2°55.337 332.8 8.9 330 11.6
2011-07-20 07:10:13 51°14.236 2°55.327 331.1 8.9 330 11.6
2011-07-20 07:10:19 51°14.25 2°55.314 330.7 9.1 329 11.5
2011-07-20 07:10:24 51°14.261 2°55.304 329.3 9.2 328 -999
2011-07-20 07:10:29 51°14.271 2°55.292 327.8 9.4 326 11.5
2011-07-20 07:10:33 51°14.28 2°55.283 326.8 9.5 327 11.5
2011-07-20 07:10:38 51°14.291 2°55.27 326 9.6 325 11.1
2011-07-20 07:10:43 51°14.302 2°55.258 325.8 9.7 326 11.5
2011-07-20 07:10:48 51°14.313 2°55.245 325.1 9.9 323 11.5
2011-07-20 07:10:53 51°14.324 2°55.232 323.8 9.9 324 11.1
2011-07-20 07:10:58 51°14.335 2°55.219 323.4 9.9 323 11.5
2011-07-20 07:11:03 51°14.346 2°55.206 323.4 10 324 10.6
2011-07-20 07:11:08 51°14.357 2°55.193 323.4 10.1 324 11.3
2011-07-20 07:11:13 51°14.369 2°55.18 323.9 10.1 324 10.8
2011-07-20 07:11:17 51°14.378 2°55.169 324.5 10.3 324 10.7
2011-07-20 07:11:22 51°14.39 2°55.156 325 10.4 325 11.4
2011-07-20 07:11:27 51°14.402 2°55.142 324.3 10.6 323 11.6
2011-07-20 07:11:33 51°14.416 2°55.126 324 10.6 326 11.2
2011-07-20 07:11:37 51°14.426 2°55.115 325.2 10.7 326 10.6
2011-07-20 07:11:43 51°14.441 2°55.1 326 10.8 326 10.9
2011-07-20 07:11:48 51°14.453 2°55.086 325.6 10.9 325 12
2011-07-20 07:11:53 51°14.466 2°55.071 324.9 11.1 325 11.9
2011-07-20 07:11:57 51°14.476 2°55.06 324.8 11.1 325 11.8
2011-07-20 07:12:03 51°14.491 2°55.044 325.2 11.2 326 12.1
2011-07-20 07:12:08 51°14.504 2°55.029 325.4 11.3 326 12.1
2011-07-20 07:12:13 51°14.518 2°55.015 325.7 11.6 326 11.8
2011-07-20 07:12:18 51°14.531 2°55 325.8 11.8 325 12
2011-07-20 07:12:22 51°14.542 2°54.988 326 11.8 323 12.4
2011-07-20 07:12:27 51°14.554 2°54.97 325.1 12.1 317 12.3
2011-07-20 07:12:33 51°14.568 2°54.945 319.6 12.3 312 12
2011-07-20 07:12:38 51°14.579 2°54.925 317.3 12.5 313 11.9
2011-07-20 07:12:43 51°14.592 2°54.905 317.6 12.6 314 12.1
2011-07-20 07:12:48 51°14.604 2°54.886 319.5 12.6 317 11.9
2011-07-20 07:12:53 51°14.618 2°54.868 321.5 12.6 320 11.9
2011-07-20 07:12:57 51°14.629 2°54.855 324.5 12.7 322 11.9
2011-07-20 07:13:03 51°14.646 2°54.834 326.3 12.8 322 11.9
2011-07-20 07:13:07 51°14.657 2°54.821 327.1 12.7 325 11.9
2011-07-20 07:13:13 51°14.675 2°54.802 328.4 12.8 325 11.8
2011-07-20 07:13:17 51°14.687 2°54.788 328.9 12.9 325 11.9
2011-07-20 07:13:23 51°14.704 2°54.769 329.2 12.9 326 11.8
2011-07-20 07:13:27 51°14.716 2°54.756 329.4 12.9 326 11.7
2011-07-20 07:13:32 51°14.731 2°54.74 329.1 12.9 326 12
2011-07-20 07:13:38 51°14.749 2°54.721 328.9 12.9 325 11.7
2011-07-20 07:13:43 51°14.763 2°54.705 328.7 12.9 325 12
2011-07-20 07:13:48 51°14.778 2°54.688 328.2 12.9 324 12.3
2011-07-20 07:13:53 51°14.793 2°54.671 326.7 13 323 12.4
2011-07-20 07:13:58 51°14.807 2°54.653 325.4 13 322 12.3
2011-07-20 07:14:03 51°14.821 2°54.635 324.3 13.1 322 12.5
2011-07-20 07:14:08 51°14.835 2°54.617 323.4 13.1 321 12.5
2011-07-20 07:14:12 51°14.847 2°54.603 323.4 13 323 12.4
2011-07-20 07:14:18 51°14.864 2°54.583 324.7 13 325 12.3
2011-07-20 07:14:23 51°14.879 2°54.566 326 13 325 12.5
2011-07-20 07:14:28 51°14.894 2°54.551 327.2 13 327 12.5
2011-07-20 07:14:33 51°14.909 2°54.536 328.2 12.9 328 12.2
2011-07-20 07:14:37 51°14.922 2°54.524 329.6 12.9 330 12.3
2011-07-20 07:14:42 51°14.937 2°54.51 331 12.8 331 12.3
2011-07-20 07:14:47 51°14.953 2°54.497 332.3 12.8 332 12.3
2011-07-20 07:14:53 51°14.972 2°54.48 333 12.8 332 12.3
2011-07-20 07:14:57 51°14.984 2°54.469 333.2 12.8 331 12.3
2011-07-20 07:15:02 51°15 2°54.456 333.2 12.9 331 12.3
2011-07-20 07:15:08 51°15.018 2°54.437 330.8 12.9 327 12.3
2011-07-20 07:15:13 51°15.032 2°54.421 328.9 12.8 326 12.1
2011-07-20 07:15:18 51°15.047 2°54.404 327.2 12.8 323 12.2
2011-07-20 07:15:22 51°15.058 2°54.391 325.3 12.8 323 12
2011-07-20 07:15:28 51°15.075 2°54.37 324 12.8 322 11.7
2011-07-20 07:15:33 51°15.089 2°54.352 322.7 12.8 321 12.1
2011-07-20 07:15:38 51°15.102 2°54.334 321.6 12.7 320 12
2011-07-20 07:15:43 51°15.116 2°54.316 320.9 12.7 321 12.1
2011-07-20 07:15:47 51°15.126 2°54.301 320.8 12.7 320 12.2
2011-07-20 07:15:53 51°15.143 2°54.279 320.5 12.7 320 12.1
2011-07-20 07:15:58 51°15.156 2°54.261 320.2 12.7 320 12.1
2011-07-20 07:16:03 51°15.17 2°54.243 320.5 12.8 320 12.2
2011-07-20 07:16:07 51°15.181 2°54.229 321 12.7 321 12.2
2011-07-20 07:16:12 51°15.195 2°54.212 321.7 12.7 322 12.1
2011-07-20 07:16:18 51°15.212 2°54.191 322.6 12.7 322 12.2
2011-07-20 07:16:23 51°15.226 2°54.174 323 12.7 322 12.3
2011-07-20 07:16:27 51°15.237 2°54.16 323.1 12.7 323 12.3
2011-07-20 07:16:32 51°15.251 2°54.143 323.4 12.7 323 12.3
2011-07-20 07:16:38 51°15.268 2°54.123 323.7 12.7 323 12.3
2011-07-20 07:16:43 51°15.282 2°54.105 323.8 12.7 322 12.2
2011-07-20 07:16:48 51°15.296 2°54.088 323.6 12.6 321 12.2
2011-07-20 07:16:52 51°15.307 2°54.074 322.8 12.7 321 12.1
2011-07-20 07:16:57 51°15.32 2°54.056 321.7 12.6 319 12.4
2011-07-20 07:17:02 51°15.333 2°54.037 321.2 12.7 320 12.5
2011-07-20 07:17:07 51°15.347 2°54.019 321.2 12.7 320 12.4
2011-07-20 07:17:12 51°15.36 2°54.001 321.3 12.7 320 12.5
2011-07-20 07:17:18 51°15.377 2°53.98 321.6 12.7 321 12.3
2011-07-20 07:17:23 51°15.391 2°53.962 322.3 12.7 321 12.5
2011-07-20 07:17:28 51°15.404 2°53.944 322.3 12.7 321 12.6
2011-07-20 07:17:33 51°15.418 2°53.926 322 12.7 320 12.5
2011-07-20 07:17:37 51°15.429 2°53.911 321.7 12.7 320 12.4
2011-07-20 07:17:43 51°15.445 2°53.89 321.6 12.6 320 12.5
2011-07-20 07:17:48 51°15.458 2°53.872 321.6 12.7 320 12.5
2011-07-20 07:17:53 51°15.472 2°53.854 321.9 12.8 321 12.4
2011-07-20 07:17:57 51°15.483 2°53.84 322.1 12.8 321 12.2
2011-07-20 07:18:02 51°15.497 2°53.822 322.3 12.8 321 12.2
2011-07-20 07:18:07 51°15.511 2°53.805 323.3 12.7 324 12.5
2011-07-20 07:18:14 51°15.531 2°53.783 325.3 12.7 325 12.5
2011-07-20 07:18:18 51°15.543 2°53.771 327.2 12.6 327 12.7
2011-07-20 07:18:23 51°15.558 2°53.756 328.9 12.6 328 12.7
2011-07-20 07:18:28 51°15.573 2°53.741 329.9 12.6 328 12.8
2011-07-20 07:18:33 51°15.588 2°53.727 330.8 12.6 329 12.6
2011-07-20 07:18:38 51°15.603 2°53.713 331.1 12.6 330 12.6
2011-07-20 07:18:42 51°15.615 2°53.701 331.6 12.6 329 12.6
2011-07-20 07:18:48 51°15.633 2°53.684 331.6 12.7 329 12.6
2011-07-20 07:18:53 51°15.648 2°53.669 331.3 12.7 329 12.5
2011-07-20 07:18:58 51°15.663 2°53.654 330.8 12.7 328 12.6
2011-07-20 07:19:03 51°15.678 2°53.639 329.9 12.7 327 12.6
2011-07-20 07:19:08 51°15.693 2°53.624 329.5 12.7 327 12.5
2011-07-20 07:19:13 51°15.707 2°53.608 329 12.7 326 12.6
2011-07-20 07:19:18 51°15.722 2°53.591 328.2 12.7 325 12.6
2011-07-20 07:19:22 51°15.733 2°53.578 327.2 12.8 324 12.6
2011-07-20 07:19:27 51°15.747 2°53.562 326.1 12.7 324 12.8
2011-07-20 07:19:33 51°15.764 2°53.542 326.3 12.7 326 12.7
2011-07-20 07:19:38 51°15.779 2°53.527 327.6 12.7 327 12.8
2011-07-20 07:19:43 51°15.794 2°53.511 328.2 12.7 326 12.8
2011-07-20 07:19:47 51°15.806 2°53.5 330 12.7 330 12.9
2011-07-20 07:19:53 51°15.825 2°53.484 331.8 12.7 331 12.7
2011-07-20 07:19:58 51°15.84 2°53.471 334 12.6 334 12.5
2011-07-20 07:20:03 51°15.856 2°53.46 336.1 12.6 335 12.7
2011-07-20 07:20:07 51°15.868 2°53.451 338 12.6 337 12.8
2011-07-20 07:20:12 51°15.885 2°53.441 339.8 12.6 339 12.7
2011-07-20 07:20:18 51°15.904 2°53.428 340.8 12.6 338 12.3
2011-07-20 07:20:23 51°15.921 2°53.419 341.5 12.5 340 11.8
2011-07-20 07:20:27 51°15.934 2°53.412 342.5 12.5 340 12.3
2011-07-20 07:20:32 51°15.95 2°53.402 342.7 12.6 340 11.9
2011-07-20 07:20:38 51°15.97 2°53.391 342.7 12.5 340 11.8
2011-07-20 07:20:43 51°15.986 2°53.381 342.8 12.5 340 11.8
2011-07-20 07:20:47 51°15.999 2°53.373 342.8 12.5 340 11.8
2011-07-20 07:20:53 51°16.019 2°53.362 342.8 12.6 340 11.9
2011-07-20 07:20:58 51°16.036 2°53.353 343.1 12.6 341 11.9
2011-07-20 07:21:03 51°16.052 2°53.344 343.4 12.5 341 11.8
2011-07-20 07:21:08 51°16.068 2°53.335 343.6 12.5 341 11.8
2011-07-20 07:21:13 51°16.085 2°53.326 343.6 12.5 341 11.9
2011-07-20 07:21:18 51°16.102 2°53.317 343.6 12.6 341 11.9
2011-07-20 07:21:23 51°16.118 2°53.308 343.6 12.6 342 11.9
2011-07-20 07:21:28 51°16.135 2°53.3 344.4 12.6 344 12
2011-07-20 07:21:33 51°16.152 2°53.293 346.1 12.5 345 12.1
2011-07-20 07:21:37 51°16.166 2°53.288 348.1 12.5 347 12.1
2011-07-20 07:21:41 51°16.179 2°53.283 349.1 12.5 346 12.1
2011-07-20 07:21:48 51°16.203 2°53.274 349.4 12.5 347 12
2011-07-20 07:21:53 51°16.22 2°53.268 350.3 12.5 348 12
2011-07-20 07:21:57 51°16.233 2°53.263 350.6 12.5 348 12.1
2011-07-20 07:22:01 51°16.247 2°53.259 350.6 12.6 348 12.3
2011-07-20 07:22:07 51°16.267 2°53.251 350.2 12.6 347 12.2
2011-07-20 07:22:13 51°16.288 2°53.244 349.9 12.5 348 12.2
2011-07-20 07:22:17 51°16.302 2°53.239 349.9 12.6 347 12.2
2011-07-20 07:22:23 51°16.322 2°53.232 349.9 12.6 347 12.3
2011-07-20 07:22:27 51°16.336 2°53.227 349.9 12.5 347 12.2
2011-07-20 07:22:33 51°16.356 2°53.22 349.4 12.6 346 12.3
2011-07-20 07:22:37 51°16.37 2°53.214 349.2 12.6 346 12.2
2011-07-20 07:22:43 51°16.39 2°53.206 348.9 12.6 346 12
2011-07-20 07:22:47 51°16.403 2°53.201 348.4 12.6 346 12.1
2011-07-20 07:22:52 51°16.42 2°53.194 348.5 12.5 347 12.1
2011-07-20 07:22:57 51°16.437 2°53.188 348.9 12.5 346 12.2
2011-07-20 07:23:03 51°16.457 2°53.179 348.3 12.6 345 12.1
2011-07-20 07:23:08 51°16.474 2°53.171 347.1 12.5 344 11.9
2011-07-20 07:23:13 51°16.491 2°53.163 346.3 12.6 343 12
2011-07-20 07:23:18 51°16.507 2°53.154 345 12.6 342 12
2011-07-20 07:23:22 51°16.521 2°53.148 344.5 12.5 344 11.9
2011-07-20 07:23:27 51°16.537 2°53.14 345 12.6 344 12.2
2011-07-20 07:23:32 51°16.554 2°53.133 346.3 12.6 346 12.1
2011-07-20 07:23:38 51°16.574 2°53.125 347.3 12.6 346 12
2011-07-20 07:23:43 51°16.592 2°53.119 348.6 12.6 348 12
2011-07-20 07:23:47 51°16.605 2°53.115 349.9 12.6 349 11.9
2011-07-20 07:23:53 51°16.626 2°53.11 351.3 12.5 350 11.7
2011-07-20 07:23:58 51°16.643 2°53.106 352.9 12.5 352 11.8
2011-07-20 07:24:03 51°16.66 2°53.102 353.8 12.5 352 11.7
2011-07-20 07:24:07 51°16.674 2°53.099 354.2 12.5 352 11.6
2011-07-20 07:24:12 51°16.691 2°53.095 354.3 12.5 352 11.5
2011-07-20 07:24:17 51°16.708 2°53.091 354.3 12.5 352 11.4
2011-07-20 07:24:23 51°16.729 2°53.086 354.2 12.5 352 11.3
2011-07-20 07:24:27 51°16.743 2°53.083 354.2 12.5 352 11.2
2011-07-20 07:24:32 51°16.759 2°53.079 354.2 12.5 352 11.4
2011-07-20 07:24:37 51°16.776 2°53.075 354.1 12.4 351 11.1
2011-07-20 07:24:43 51°16.797 2°53.069 353.5 12.5 351 11
2011-07-20 07:24:47 51°16.811 2°53.065 352.6 12.4 350 10.4
2011-07-20 07:24:51 51°16.824 2°53.061 352.1 12.4 350 9.9
2011-07-20 07:24:57 51°16.844 2°53.056 352 12.4 350 9.4
2011-07-20 07:25:02 51°16.861 2°53.051 352 12.3 350 9
2011-07-20 07:25:07 51°16.878 2°53.046 352 12.3 350 8.9
2011-07-20 07:25:11 51°16.891 2°53.042 352 12.2 350 8.7
2011-07-20 07:25:17 51°16.911 2°53.036 351.9 12.2 350 8.6
2011-07-20 07:25:23 51°16.931 2°53.031 352.1 12.2 350 8.6
2011-07-20 07:25:27 51°16.945 2°53.027 352.2 12.3 351 8.6
2011-07-20 07:25:31 51°16.958 2°53.024 353 12.3 353 8.7
2011-07-20 07:25:37 51°16.979 2°53.021 355.1 12.3 355 8.8
2011-07-20 07:25:43 51°16.999 2°53.018 356.6 12.3 355 8.9
2011-07-20 07:25:47 51°17.013 2°53.017 357.7 12.4 357 9
2011-07-20 07:25:51 51°17.027 2°53.016 359.1 12.3 359 9
2011-07-20 07:25:57 51°17.047 2°53.017 1.5 12.4 1 9.1
2011-07-20 07:26:02 51°17.064 2°53.018 3.5 12.4 3 9.1
2011-07-20 07:26:07 51°17.082 2°53.019 4.8 12.4 4 9.2
2011-07-20 07:26:11 51°17.095 2°53.022 6.8 12.4 6 9.3
2011-07-20 07:26:17 51°17.116 2°53.025 7.7 12.4 6 9.1
2011-07-20 07:26:22 51°17.133 2°53.03 9.1 12.4 8 9.6
2011-07-20 07:26:27 51°17.15 2°53.034 10.3 12.4 9 9.9
2011-07-20 07:26:32 51°17.167 2°53.038 11.2 12.4 10 9.9
2011-07-20 07:26:37 51°17.184 2°53.043 12.4 12.4 11 9.8
2011-07-20 07:26:42 51°17.2 2°53.049 13.4 12.4 12 9.6
2011-07-20 07:26:47 51°17.217 2°53.055 14 12.4 12 9.4
2011-07-20 07:26:52 51°17.234 2°53.061 14.3 12.3 13 9.6
2011-07-20 07:26:57 51°17.25 2°53.067 14.9 12.3 13 9.6
2011-07-20 07:27:02 51°17.267 2°53.073 15 12.3 13 9.8
2011-07-20 07:27:07 51°17.283 2°53.079 15 12.3 13 9.6
2011-07-20 07:27:11 51°17.297 2°53.085 16 12.4 15 9.6
2011-07-20 07:27:17 51°17.317 2°53.094 16.8 12.4 15 9.7
2011-07-20 07:27:22 51°17.333 2°53.102 18 12.3 17 9.5
2011-07-20 07:27:27 51°17.349 2°53.11 19.3 12.3 18 9.6
2011-07-20 07:27:31 51°17.362 2°53.117 19.7 12.3 18 9.8
2011-07-20 07:27:37 51°17.381 2°53.128 20.8 12.3 20 9.9
2011-07-20 07:27:43 51°17.4 2°53.139 21.8 12.3 20 9.9
2011-07-20 07:27:47 51°17.413 2°53.146 22.2 12.3 21 9.9
2011-07-20 07:27:51 51°17.426 2°53.154 22.5 12.3 21 9.7
2011-07-20 07:27:57 51°17.445 2°53.166 22.9 12.2 23 9.8
2011-07-20 07:28:03 51°17.464 2°53.179 24.6 12.2 23 9.9
2011-07-20 07:28:07 51°17.476 2°53.187 25.3 12.2 23 9.9
2011-07-20 07:28:11 51°17.488 2°53.197 26 12.2 24 9.9
2011-07-20 07:28:17 51°17.507 2°53.209 25.7 12.2 24 9.9
2011-07-20 07:28:23 51°17.526 2°53.223 26.2 12.2 25 10
2011-07-20 07:28:28 51°17.541 2°53.234 26.3 12.2 24 10
2011-07-20 07:28:33 51°17.556 2°53.245 26.5 12.2 24 10
2011-07-20 07:28:38 51°17.572 2°53.256 26.2 12.2 23 10
2011-07-20 07:28:43 51°17.588 2°53.266 25.2 12.2 23 10.1
2011-07-20 07:28:48 51°17.603 2°53.277 24.8 12.2 23 9.9
2011-07-20 07:28:53 51°17.618 2°53.288 25.6 12.2 24 10
2011-07-20 07:28:58 51°17.634 2°53.299 26.2 12.2 24 9.9
2011-07-20 07:29:03 51°17.649 2°53.311 26.5 12.2 25 10.1
2011-07-20 07:29:08 51°17.664 2°53.323 27.1 12.2 27 9.9
2011-07-20 07:29:12 51°17.676 2°53.332 28.2 12.1 27 10.1
2011-07-20 07:29:18 51°17.693 2°53.349 30.9 12.1 32 10.1
2011-07-20 07:29:23 51°17.707 2°53.364 33.2 12.1 34 10.2
2011-07-20 07:29:28 51°17.721 2°53.38 35.6 12.1 36 10.1
2011-07-20 07:29:32 51°17.731 2°53.394 38.3 12 38 10.1
2011-07-20 07:29:38 51°17.747 2°53.414 40.5 12.1 41 10
2011-07-20 07:29:43 51°17.759 2°53.432 42.3 12.1 42 10.2
2011-07-20 07:29:48 51°17.771 2°53.451 43.5 12 44 10.2
2011-07-20 07:29:52 51°17.781 2°53.466 45.4 12 44 9.9
2011-07-20 07:29:58 51°17.795 2°53.489 46.2 12.1 46 10.1
2011-07-20 07:30:03 51°17.806 2°53.508 47 12.1 45 10.1
2011-07-20 07:30:08 51°17.818 2°53.527 46.7 12.1 45 10.1
2011-07-20 07:30:12 51°17.828 2°53.542 46.2 12.1 45 10.1
2011-07-20 07:30:17 51°17.84 2°53.56 46 12.1 44 10.2
2011-07-20 07:30:23 51°17.853 2°53.584 46.2 12 47 10.2
2011-07-20 07:30:28 51°17.865 2°53.604 48 12.1 49 10
2011-07-20 07:30:32 51°17.873 2°53.62 50.4 12.1 51 10.2
2011-07-20 07:30:37 51°17.883 2°53.642 52.3 12 53 10.1
2011-07-20 07:30:42 51°17.893 2°53.663 54.2 12 53 10.4
2011-07-20 07:30:48 51°17.904 2°53.689 55 12 55 10
2011-07-20 07:30:52 51°17.912 2°53.707 55.8 12 55 10
2011-07-20 07:30:57 51°17.921 2°53.729 56.1 12 57 10.2
2011-07-20 07:31:02 51°17.931 2°53.751 57 12 56 10.1
2011-07-20 07:31:07 51°17.94 2°53.773 57.6 12.1 58 10.1
2011-07-20 07:31:12 51°17.949 2°53.796 58 12.1 56 10.1
2011-07-20 07:31:17 51°17.958 2°53.818 57.5 12 56 10.2
2011-07-20 07:31:23 51°17.969 2°53.843 56.8 12 55 10.2
2011-07-20 07:31:27 51°17.977 2°53.861 56 12 54 10.2
2011-07-20 07:31:32 51°17.988 2°53.882 54.5 12 52 10
2011-07-20 07:31:37 51°17.998 2°53.902 53.2 12 51 9.9
2011-07-20 07:31:43 51°18.011 2°53.927 52.2 12 51 10
2011-07-20 07:31:47 51°18.019 2°53.943 51.6 12 49 10
2011-07-20 07:31:52 51°18.03 2°53.963 50.9 11.9 50 10.1
2011-07-20 07:31:57 51°18.041 2°53.983 51.1 12 50 10.1
2011-07-20 07:32:03 51°18.054 2°54.007 51 12 49 9.9
2011-07-20 07:32:07 51°18.063 2°54.024 50.9 12 50 10.1
2011-07-20 07:32:12 51°18.073 2°54.044 51.6 12 50 10.2
2011-07-20 07:32:17 51°18.084 2°54.065 51.6 12 50 10.1
2011-07-20 07:32:23 51°18.096 2°54.089 51.8 11.9 51 10
2011-07-20 07:32:27 51°18.105 2°54.106 52.4 12 52 10.1
2011-07-20 07:32:32 51°18.115 2°54.127 53.7 12 53 10
2011-07-20 07:32:37 51°18.124 2°54.149 55.2 12 57 10.2
2011-07-20 07:32:43 51°18.135 2°54.176 56.9 12 56 10.1
2011-07-20 07:32:47 51°18.142 2°54.193 57.4 11.9 58 10
2011-07-20 07:32:52 51°18.151 2°54.216 58.4 12 57 10.2
2011-07-20 07:32:56 51°18.158 2°54.233 58.7 12 58 10.1
2011-07-20 07:33:02 51°18.169 2°54.26 58.9 12 56 10.1
2011-07-20 07:33:07 51°18.178 2°54.282 58.2 11.9 57 10
2011-07-20 07:33:12 51°18.187 2°54.304 57.9 12 55 10
2011-07-20 07:33:16 51°18.195 2°54.322 57.5 12 57 10.1
2011-07-20 07:33:22 51°18.206 2°54.348 57.4 12 55 10.1
2011-07-20 07:33:27 51°18.216 2°54.37 56.7 12 55 10.2
2011-07-20 07:33:32 51°18.225 2°54.392 56.2 12 54 10.2
2011-07-20 07:33:36 51°18.233 2°54.408 55.6 12 53 10.2
2011-07-20 07:33:42 51°18.246 2°54.434 54.2 12 51 10.2
2011-07-20 07:33:47 51°18.257 2°54.454 52.8 12 50 10.2
2011-07-20 07:33:52 51°18.268 2°54.474 52 12 50 10.1
2011-07-20 07:33:57 51°18.278 2°54.495 51.5 12 50 10
2011-07-20 07:34:02 51°18.289 2°54.515 51.4 12 49 10.1
2011-07-20 07:34:07 51°18.3 2°54.534 51.1 12 50 10.2
2011-07-20 07:34:12 51°18.311 2°54.555 50.9 12 49 10.1
2011-07-20 07:34:17 51°18.322 2°54.575 51 12 51 10.4
2011-07-20 07:34:23 51°18.334 2°54.599 51.7 12 50 10.4
2011-07-20 07:34:27 51°18.343 2°54.615 51.6 11.9 50 10.3
2011-07-20 07:34:32 51°18.354 2°54.636 51.5 11.9 51 10.2
2011-07-20 07:34:37 51°18.364 2°54.656 51.9 11.9 50 10.2
2011-07-20 07:34:43 51°18.377 2°54.681 52.2 12 52 10.4
2011-07-20 07:34:47 51°18.385 2°54.697 52.8 12 52 10.4
2011-07-20 07:34:52 51°18.395 2°54.719 53.9 12 54 10.4
2011-07-20 07:34:57 51°18.404 2°54.741 55.7 12 55 10.4
2011-07-20 07:35:02 51°18.414 2°54.762 56.7 11.9 56 10.4
2011-07-20 07:35:07 51°18.423 2°54.784 57.6 11.9 57 10.4
2011-07-20 07:35:12 51°18.432 2°54.806 58.2 11.9 57 10.4
2011-07-20 07:35:17 51°18.441 2°54.828 58.2 12 56 10.3
2011-07-20 07:35:22 51°18.45 2°54.85 57.9 12 56 10.4
2011-07-20 07:35:27 51°18.46 2°54.872 57.4 12 55 10.3
2011-07-20 07:35:32 51°18.469 2°54.894 57.3 12 56 10.4
2011-07-20 07:35:36 51°18.477 2°54.911 57.5 12 56 10.5
2011-07-20 07:35:42 51°18.488 2°54.937 57.4 11.9 56 10.5
2011-07-20 07:35:47 51°18.497 2°54.959 57.3 12 54 10.4
2011-07-20 07:35:52 51°18.507 2°54.981 56.8 12 55 10.4
2011-07-20 07:35:56 51°18.515 2°54.998 56.7 12 55 10.4
2011-07-20 07:36:02 51°18.526 2°55.025 57.3 12 56 10.5
2011-07-20 07:36:08 51°18.537 2°55.05 57.6 12 55 10.4
2011-07-20 07:36:12 51°18.544 2°55.068 57.4 11.9 56 10.5
2011-07-20 07:36:17 51°18.554 2°55.089 57.4 12 54 10.5
2011-07-20 07:36:23 51°18.566 2°55.115 56.5 12 55 10.6
2011-07-20 07:36:28 51°18.576 2°55.137 56.2 12.1 53 10.6
2011-07-20 07:36:32 51°18.584 2°55.153 55 11.9 52 10.6
2011-07-20 07:36:37 51°18.594 2°55.174 53.8 11.9 50 10.6
2011-07-20 07:36:42 51°18.606 2°55.194 51.9 12 48 10.7
2011-07-20 07:36:47 51°18.617 2°55.214 51 12 50 10.6
2011-07-20 07:36:52 51°18.627 2°55.233 50.9 12 49 10.6
2011-07-20 07:36:57 51°18.638 2°55.253 50.4 11.8 51 10.5
2011-07-20 07:37:03 51°18.649 2°55.279 53.4 11.9 55 10.7
2011-07-20 07:37:07 51°18.657 2°55.296 56 11.9 56 10.7
2011-07-20 07:37:12 51°18.665 2°55.318 58.1 11.9 58 10.5
2011-07-20 07:37:17 51°18.674 2°55.341 59.6 12 59 10.6
2011-07-20 07:37:22 51°18.682 2°55.365 61.6 11.8 63 10.4
2011-07-20 07:37:27 51°18.689 2°55.388 64.2 11.8 65 10.6
2011-07-20 07:37:32 51°18.696 2°55.412 66.2 11.8 66 10.6
2011-07-20 07:37:37 51°18.702 2°55.436 67.3 11.9 67 10.7
2011-07-20 07:37:42 51°18.709 2°55.461 67.9 11.9 67 10.6
2011-07-20 07:37:47 51°18.715 2°55.485 68.2 11.9 67 10.5
2011-07-20 07:37:52 51°18.721 2°55.509 68.6 11.8 68 10.6
2011-07-20 07:37:57 51°18.728 2°55.533 68.3 11.9 65 10.6
2011-07-20 07:38:02 51°18.735 2°55.557 67.2 11.9 66 10.5
2011-07-20 07:38:07 51°18.741 2°55.581 67 11.9 65 10.5
2011-07-20 07:38:12 51°18.748 2°55.605 66.7 11.9 65 10.5
2011-07-20 07:38:16 51°18.754 2°55.624 66.7 11.9 66 10.7
2011-07-20 07:38:22 51°18.762 2°55.653 67.3 11.8 67 10.5
2011-07-20 07:38:27 51°18.768 2°55.677 67.8 11.9 66 10.4
2011-07-20 07:38:32 51°18.775 2°55.701 67.6 11.9 66 10.4
2011-07-20 07:38:36 51°18.78 2°55.721 68 11.8 67 10.4
2011-07-20 07:38:42 51°18.788 2°55.749 67.9 11.9 65 10.4
2011-07-20 07:38:48 51°18.796 2°55.778 66.8 11.8 65 10.3
2011-07-20 07:38:52 51°18.802 2°55.797 66.3 11.8 64 10.4
2011-07-20 07:38:57 51°18.81 2°55.819 64.6 11.8 62 10.3
2011-07-20 07:39:02 51°18.817 2°55.842 64 11.8 61 10.3
2011-07-20 07:39:08 51°18.827 2°55.87 62.6 11.8 61 10.3
2011-07-20 07:39:12 51°18.834 2°55.888 62.2 11.8 61 10.4
2011-07-20 07:39:17 51°18.842 2°55.91 62 11.8 60 10.3
2011-07-20 07:39:22 51°18.85 2°55.933 62.1 11.8 61 10.4
2011-07-20 07:39:28 51°18.859 2°55.961 62.5 11.8 62 10.3
2011-07-20 07:39:32 51°18.865 2°55.979 63.3 11.8 62 10.3
2011-07-20 07:39:37 51°18.873 2°56.002 63.2 11.8 62 10.4
2011-07-20 07:39:42 51°18.881 2°56.026 64.2 11.8 64 10.4
2011-07-20 07:39:48 51°18.889 2°56.055 65.5 11.9 65 10.4
2011-07-20 07:39:52 51°18.894 2°56.074 66.4 11.8 66 10.3
2011-07-20 07:39:57 51°18.901 2°56.098 67.6 11.8 67 10.3
2011-07-20 07:40:02 51°18.907 2°56.121 68 11.8 67 10.3
2011-07-20 07:40:07 51°18.913 2°56.145 68.6 11.8 68 10.4
2011-07-20 07:40:12 51°18.92 2°56.17 69 11.9 67 10.3
2011-07-20 07:40:17 51°18.927 2°56.194 68.3 11.9 67 10.3
2011-07-20 07:40:22 51°18.933 2°56.218 68.1 11.9 65 10.4
2011-07-20 07:40:27 51°18.94 2°56.241 67.3 11.7 65 10.3
2011-07-20 07:40:32 51°18.947 2°56.265 66.8 11.8 64 10.3
2011-07-20 07:40:37 51°18.954 2°56.288 65.8 11.8 63 10.2
2011-07-20 07:40:42 51°18.962 2°56.311 64.6 11.9 62 10.4
2011-07-20 07:40:47 51°18.97 2°56.334 64.1 11.8 62 10.3
2011-07-20 07:40:52 51°18.978 2°56.357 64.1 11.9 62 10.2
2011-07-20 07:40:56 51°18.984 2°56.376 63.2 11.8 60 10.3
2011-07-20 07:41:02 51°18.994 2°56.403 62.6 11.7 61 10.3
2011-07-20 07:41:07 51°19.002 2°56.426 62.5 11.8 59 10.3
2011-07-20 07:41:12 51°19.01 2°56.448 61.8 11.9 60 10.2
2011-07-20 07:41:16 51°19.017 2°56.467 62 11.8 60 10.2
2011-07-20 07:41:22 51°19.026 2°56.494 62.2 11.8 61 10.2
2011-07-20 07:41:28 51°19.035 2°56.522 63 11.8 63 10.2
2011-07-20 07:41:32 51°19.041 2°56.54 64.5 11.8 64 10.2
2011-07-20 07:41:36 51°19.047 2°56.559 65.9 11.8 65 10.2
2011-07-20 07:41:42 51°19.055 2°56.587 67.2 11.8 67 10.2
2011-07-20 07:41:48 51°19.063 2°56.616 67.9 11.8 66 10.1
2011-07-20 07:41:52 51°19.068 2°56.635 68.1 11.8 67 10.1
2011-07-20 07:41:57 51°19.074 2°56.66 68.9 11.8 67 10.2
2011-07-20 07:42:02 51°19.08 2°56.683 68.7 11.8 66 10.2
2011-07-20 07:42:08 51°19.088 2°56.712 68.5 11.8 67 10.3
2011-07-20 07:42:12 51°19.094 2°56.731 67.6 11.8 64 10.2
2011-07-20 07:42:17 51°19.101 2°56.754 66.9 11.7 65 10.2
2011-07-20 07:42:22 51°19.108 2°56.777 65.4 11.7 61 10.2
2011-07-20 07:42:27 51°19.116 2°56.8 64.7 11.7 64 10.2
2011-07-20 07:42:32 51°19.123 2°56.823 64.8 11.8 63 10.2
2011-07-20 07:42:37 51°19.131 2°56.847 64.9 11.8 63 10
2011-07-20 07:42:42 51°19.138 2°56.87 65.1 11.8 64 10.1
2011-07-20 07:42:47 51°19.145 2°56.894 65.9 11.7 65 10.1
2011-07-20 07:42:52 51°19.152 2°56.917 67.1 11.7 66 10.1
2011-07-20 07:42:57 51°19.159 2°56.941 67.2 11.8 64 10.2
2011-07-20 07:43:02 51°19.166 2°56.964 66.5 11.8 65 10
2011-07-20 07:43:07 51°19.173 2°56.988 67.1 11.8 66 10.1
2011-07-20 07:43:12 51°19.179 2°57.012 67.3 11.8 65 10.1
2011-07-20 07:43:17 51°19.186 2°57.036 67.6 11.8 66 10.1
2011-07-20 07:43:23 51°19.194 2°57.064 67.9 11.8 66 10.1
2011-07-20 07:43:27 51°19.2 2°57.083 67.8 11.8 66 10.1
2011-07-20 07:43:32 51°19.207 2°57.107 67.7 11.8 65 10
2011-07-20 07:43:36 51°19.212 2°57.126 67 11.8 65 10
2011-07-20 07:43:42 51°19.221 2°57.154 66.6 11.8 63 10
2011-07-20 07:43:48 51°19.23 2°57.182 65.8 11.8 63 10
2011-07-20 07:43:52 51°19.236 2°57.2 65.2 11.8 62 10.1
2011-07-20 07:43:56 51°19.243 2°57.218 63.3 11.7 60 10.1
2011-07-20 07:44:02 51°19.253 2°57.245 62.8 11.8 60 10.1
2011-07-20 07:44:08 51°19.263 2°57.272 61.8 11.8 58 9.9
2011-07-20 07:44:12 51°19.269 2°57.29 61.5 11.8 60 10.1
2011-07-20 07:44:17 51°19.278 2°57.312 61.2 11.9 57 10.1
2011-07-20 07:44:22 51°19.287 2°57.335 61 11.8 59 10
2011-07-20 07:44:28 51°19.297 2°57.362 61.2 11.8 58 10.1
2011-07-20 07:44:32 51°19.304 2°57.38 61.3 11.8 59 10
2011-07-20 07:44:37 51°19.312 2°57.403 61.7 11.9 59 10
2011-07-20 07:44:43 51°19.322 2°57.43 61.9 11.8 60 9.9
2011-07-20 07:44:47 51°19.328 2°57.448 62.3 11.8 61 9.9
2011-07-20 07:44:52 51°19.337 2°57.471 62.4 11.8 59 9.9
2011-07-20 07:44:57 51°19.345 2°57.494 62.1 11.8 60 10
2011-07-20 07:45:03 51°19.355 2°57.521 61.9 11.8 59 10
2011-07-20 07:45:07 51°19.362 2°57.539 62 11.8 59 10
2011-07-20 07:45:12 51°19.37 2°57.561 62 11.8 60 10
2011-07-20 07:45:17 51°19.378 2°57.584 62.3 11.8 60 9.9
2011-07-20 07:45:23 51°19.388 2°57.611 62.6 11.8 61 10
2011-07-20 07:45:27 51°19.394 2°57.629 62.9 11.8 60 9.9
2011-07-20 07:45:32 51°19.402 2°57.652 63.6 11.8 62 9.9
2011-07-20 07:45:37 51°19.41 2°57.675 63.7 11.8 61 9.8
2011-07-20 07:45:43 51°19.419 2°57.702 64 11.7 63 9.9
2011-07-20 07:45:47 51°19.425 2°57.721 66.1 11.8 65 10
2011-07-20 07:45:52 51°19.431 2°57.744 67.2 11.8 65 9.9
2011-07-20 07:45:57 51°19.437 2°57.768 68.7 11.8 68 9.9
2011-07-20 07:46:02 51°19.444 2°57.792 69 11.8 66 9.9
2011-07-20 07:46:07 51°19.45 2°57.816 69.7 11.8 69 9.9
2011-07-20 07:46:12 51°19.457 2°57.84 69.8 11.8 66 9.9
2011-07-20 07:46:16 51°19.462 2°57.859 69.2 11.8 67 9.9
2011-07-20 07:46:22 51°19.47 2°57.888 68.5 11.8 66 9.8
2011-07-20 07:46:28 51°19.478 2°57.916 68 11.8 65 9.8
2011-07-20 07:46:32 51°19.484 2°57.935 67.2 11.8 65 9.8
2011-07-20 07:46:36 51°19.489 2°57.954 67.2 11.8 65 9.8
2011-07-20 07:46:42 51°19.497 2°57.982 67.7 11.7 65 9.8
2011-07-20 07:46:48 51°19.506 2°58.01 67.3 11.8 63 9.7
2011-07-20 07:46:52 51°19.512 2°58.029 65.8 11.8 62 9.8
2011-07-20 07:46:57 51°19.521 2°58.051 64.1 11.7 61 9.9
2011-07-20 07:47:02 51°19.529 2°58.074 63.7 11.7 61 9.9
2011-07-20 07:47:07 51°19.537 2°58.096 63.1 11.7 60 9.8
2011-07-20 07:47:12 51°19.545 2°58.118 62.9 11.8 60 9.8
2011-07-20 07:47:17 51°19.553 2°58.14 62.2 11.8 60 9.7
2011-07-20 07:47:23 51°19.563 2°58.167 62.3 11.8 59 9.9
2011-07-20 07:47:27 51°19.57 2°58.185 61.9 11.8 59 9.9
2011-07-20 07:47:32 51°19.578 2°58.208 61.8 11.8 60 9.8
2011-07-20 07:47:37 51°19.587 2°58.23 61.8 11.8 58 9.7
2011-07-20 07:47:43 51°19.596 2°58.257 62.2 11.8 61 9.8
2011-07-20 07:47:47 51°19.603 2°58.275 63.1 11.8 61 9.8
2011-07-20 07:47:52 51°19.61 2°58.298 64.3 11.8 63 9.9
2011-07-20 07:47:57 51°19.617 2°58.321 65.4 11.6 65 9.9
2011-07-20 07:48:03 51°19.625 2°58.35 67.6 11.7 65 9.7
2011-07-20 07:48:07 51°19.63 2°58.369 68.3 11.7 67 9.9
2011-07-20 07:48:12 51°19.637 2°58.393 69.3 11.8 66 9.8
2011-07-20 07:48:17 51°19.643 2°58.416 69 11.7 66 9.7
2011-07-20 07:48:23 51°19.651 2°58.445 68.9 11.7 67 9.7
2011-07-20 07:48:28 51°19.658 2°58.469 69 11.8 67 9.7
2011-07-20 07:48:32 51°19.663 2°58.488 69 11.8 67 9.9
2011-07-20 07:48:37 51°19.67 2°58.511 68.5 11.7 66 9.7
2011-07-20 07:48:42 51°19.676 2°58.535 69 11.7 67 9.6
2011-07-20 07:48:48 51°19.684 2°58.564 69.4 11.7 66 9.6
2011-07-20 07:48:52 51°19.689 2°58.582 68.7 11.6 66 9.7
2011-07-20 07:48:56 51°19.694 2°58.601 68.7 11.7 65 9.7
2011-07-20 07:49:02 51°19.703 2°58.629 68 11.7 66 9.7
2011-07-20 07:49:07 51°19.709 2°58.653 68.3 11.7 65 9.7
2011-07-20 07:49:12 51°19.716 2°58.676 68.3 11.7 66 9.8
2011-07-20 07:49:16 51°19.722 2°58.695 67.4 11.6 63 9.6
2011-07-20 07:49:22 51°19.731 2°58.722 66.1 11.6 63 9.6
2011-07-20 07:49:28 51°19.74 2°58.749 65.3 11.7 60 9.7
2011-07-20 07:49:32 51°19.747 2°58.767 63.2 11.7 60 9.8
2011-07-20 07:49:37 51°19.755 2°58.789 62.5 11.6 59 9.6
2011-07-20 07:49:42 51°19.764 2°58.811 61.9 11.7 58 9.6
2011-07-20 07:49:48 51°19.774 2°58.837 61.6 11.7 59 9.7
2011-07-20 07:49:52 51°19.781 2°58.854 61.3 11.6 57 9.8
2011-07-20 07:49:57 51°19.789 2°58.877 61.7 11.7 59 9.5
2011-07-20 07:50:02 51°19.798 2°58.899 61.9 11.7 58 9.6
2011-07-20 07:50:08 51°19.808 2°58.925 61.2 11.7 59 9.6
2011-07-20 07:50:12 51°19.815 2°58.943 62 11.6 60 9.7
2011-07-20 07:50:17 51°19.822 2°58.965 63.2 11.6 62 9.7
2011-07-20 07:50:23 51°19.831 2°58.993 64.8 11.7 62 9.6
2011-07-20 07:50:28 51°19.838 2°59.016 65.6 11.6 65 9.6
2011-07-20 07:50:32 51°19.844 2°59.035 67.5 11.7 65 9.5
2011-07-20 07:50:37 51°19.851 2°59.058 67.6 11.6 65 9.6
2011-07-20 07:50:43 51°19.859 2°59.086 68.1 11.6 66 9.6
2011-07-20 07:50:48 51°19.865 2°59.109 68.5 11.7 66 9.6
2011-07-20 07:50:52 51°19.87 2°59.128 68.9 11.7 66 9.5
2011-07-20 07:50:57 51°19.877 2°59.151 68.9 11.6 66 9.4
2011-07-20 07:51:02 51°19.884 2°59.175 69 11.7 66 9.6
2011-07-20 07:51:08 51°19.892 2°59.203 68.5 11.6 66 9.6
2011-07-20 07:51:12 51°19.897 2°59.221 67.9 11.6 64 9.4
2011-07-20 07:51:17 51°19.904 2°59.244 67.5 11.6 64 9.6
2011-07-20 07:51:22 51°19.912 2°59.266 65.8 11.6 61 9.7
2011-07-20 07:51:27 51°19.92 2°59.289 64.4 11.6 61 9.6
2011-07-20 07:51:32 51°19.928 2°59.311 63.6 11.7 59 9.6
2011-07-20 07:51:36 51°19.935 2°59.329 62.7 11.6 60 9.7
2011-07-20 07:51:42 51°19.945 2°59.355 62.3 11.6 59 9.6
2011-07-20 07:51:47 51°19.953 2°59.378 62.8 11.6 61 9.6
2011-07-20 07:51:52 51°19.96 2°59.4 63.9 11.7 61 9.6
2011-07-20 07:51:56 51°19.966 2°59.418 64.6 11.6 62 9.5
2011-07-20 07:52:02 51°19.975 2°59.446 65.4 11.6 63 9.7
2011-07-20 07:52:08 51°19.983 2°59.474 66.2 11.6 65 9.6
2011-07-20 07:52:12 51°19.989 2°59.493 67.7 11.6 66 9.6
2011-07-20 07:52:16 51°19.993 2°59.511 69.2 11.6 68 9.6
2011-07-20 07:52:22 51°20.001 2°59.54 70 11.6 67 9.6
2011-07-20 07:52:28 51°20.008 2°59.568 69.8 11.6 68 9.5
2011-07-20 07:52:32 51°20.014 2°59.587 70 11.6 67 9.5
2011-07-20 07:52:37 51°20.02 2°59.611 70 11.6 68 9.5
2011-07-20 07:52:43 51°20.028 2°59.639 70.1 11.6 66 9.6
2011-07-20 07:52:48 51°20.034 2°59.663 69 11.6 65 9.5
2011-07-20 07:52:52 51°20.039 2°59.681 68.5 11.5 66 9.6
2011-07-20 07:52:57 51°20.046 2°59.704 68.4 11.6 66 9.6
2011-07-20 07:53:02 51°20.053 2°59.728 68.5 11.6 66 9.6
2011-07-20 07:53:08 51°20.06 2°59.756 68.5 11.5 67 9.6
2011-07-20 07:53:12 51°20.065 2°59.774 69.4 11.5 67 9.6
2011-07-20 07:53:17 51°20.072 2°59.798 69.8 11.5 67 9.5
2011-07-20 07:53:22 51°20.078 2°59.822 70.1 11.5 67 9.5
2011-07-20 07:53:28 51°20.085 2°59.85 70.5 11.5 69 9.5
2011-07-20 07:53:32 51°20.09 2°59.869 70.5 11.6 66 9.5
2011-07-20 07:53:37 51°20.096 2°59.893 70.1 11.5 67 9.6
2011-07-20 07:53:42 51°20.103 2°59.916 69.6 11.5 66 9.6
2011-07-20 07:53:47 51°20.109 2°59.939 69.3 11.6 66 9.6
2011-07-20 07:53:52 51°20.116 2°59.963 68.9 11.6 65 9.5
2011-07-20 07:53:57 51°20.122 2°59.986 68.9 11.6 65 9.4
2011-07-20 07:54:02 51°20.129 3°0.009 68.1 11.6 65 9.6
2011-07-20 07:54:07 51°20.136 3°0.032 67.5 11.6 64 9.6
2011-07-20 07:54:12 51°20.144 3°0.055 66.9 11.6 63 9.6
2011-07-20 07:54:16 51°20.15 3°0.073 66.5 11.5 64 9.6
2011-07-20 07:54:22 51°20.158 3°0.1 66.4 11.6 62 9.6
2011-07-20 07:54:27 51°20.166 3°0.123 65.9 11.6 63 9.5
2011-07-20 07:54:32 51°20.173 3°0.145 65.9 11.6 63 9.4
2011-07-20 07:54:36 51°20.179 3°0.163 66.3 11.5 63 9.5
2011-07-20 07:54:42 51°20.187 3°0.191 66.6 11.6 63 9.4
2011-07-20 07:54:48 51°20.196 3°0.219 66.9 11.5 64 9.5
2011-07-20 07:54:52 51°20.201 3°0.237 67.2 11.5 64 9.6
2011-07-20 07:54:56 51°20.207 3°0.255 68.1 11.5 66 9.6
2011-07-20 07:55:02 51°20.215 3°0.283 68.8 11.5 66 9.5
2011-07-20 07:55:08 51°20.222 3°0.311 69 11.5 67 9.6
2011-07-20 07:55:12 51°20.227 3°0.33 69.4 11.5 66 9.6
2011-07-20 07:55:17 51°20.234 3°0.353 69.6 11.5 67 9.6
2011-07-20 07:55:22 51°20.24 3°0.377 69.8 11.6 66 9.6
2011-07-20 07:55:28 51°20.248 3°0.404 69.4 11.4 66 9.6
2011-07-20 07:55:32 51°20.253 3°0.423 68.3 11.5 64 9.6
2011-07-20 07:55:37 51°20.261 3°0.445 66.3 11.6 60 9.5
2011-07-20 07:55:42 51°20.269 3°0.467 64.4 11.5 60 9.5
2011-07-20 07:55:48 51°20.279 3°0.493 63.9 11.5 59 9.4
2011-07-20 07:55:52 51°20.286 3°0.511 63.1 11.5 59 9.5
2011-07-20 07:55:57 51°20.294 3°0.533 62.5 11.5 60 9.5
2011-07-20 07:56:02 51°20.302 3°0.555 62.9 11.6 58 9.5
2011-07-20 07:56:07 51°20.311 3°0.577 62.2 11.5 59 9.5
2011-07-20 07:56:12 51°20.319 3°0.598 62.5 11.5 59 9.5
2011-07-20 07:56:17 51°20.327 3°0.62 62.5 11.4 59 9.7
2011-07-20 07:56:22 51°20.335 3°0.642 62.7 11.5 59 9.6
2011-07-20 07:56:27 51°20.343 3°0.664 63.2 11.5 60 9.7
2011-07-20 07:56:32 51°20.351 3°0.686 63.2 11.5 60 9.6
2011-07-20 07:56:37 51°20.359 3°0.708 63.7 11.4 61 9.6
2011-07-20 07:56:42 51°20.366 3°0.73 64 11.4 61 9.6
2011-07-20 07:56:47 51°20.374 3°0.752 64.1 11.4 61 9.8
2011-07-20 07:56:52 51°20.382 3°0.774 64.4 11.4 60 9.6
2011-07-20 07:56:56 51°20.388 3°0.791 63.8 11.4 60 9.5
2011-07-20 07:57:02 51°20.397 3°0.817 64 11.3 61 9.6
2011-07-20 07:57:08 51°20.406 3°0.844 64.7 11.4 61 9.6
2011-07-20 07:57:12 51°20.413 3°0.861 64 11.3 61 9.7
2011-07-20 07:57:16 51°20.419 3°0.879 64.8 11.4 62 9.6
2011-07-20 07:57:22 51°20.427 3°0.906 66 11.4 63 9.6
2011-07-20 07:57:28 51°20.436 3°0.933 66.1 11.3 63 9.7
2011-07-20 07:57:32 51°20.442 3°0.95 66.1 11.3 63 9.7
2011-07-20 07:57:37 51°20.449 3°0.973 65.6 11.4 62 9.6
2011-07-20 07:57:42 51°20.456 3°0.995 65.3 11.3 62 9.6
2011-07-20 07:57:48 51°20.465 3°1.021 65.1 11.3 63 9.7
2011-07-20 07:57:52 51°20.471 3°1.039 65.2 11.4 63 9.6
2011-07-20 07:57:57 51°20.478 3°1.062 65.9 11.3 65 9.6
2011-07-20 07:58:02 51°20.484 3°1.085 67.2 11.3 66 9.6
2011-07-20 07:58:07 51°20.49 3°1.108 69.1 11.2 68 9.4
2011-07-20 07:58:12 51°20.496 3°1.131 70.5 11.3 69 9.4
2011-07-20 07:58:17 51°20.501 3°1.154 71.2 11.3 70 9.7
2011-07-20 07:58:23 51°20.508 3°1.182 71.6 11.3 69 9.6
2011-07-20 07:58:27 51°20.512 3°1.201 71.7 11.2 70 9.4
2011-07-20 07:58:32 51°20.517 3°1.224 71.9 11.3 70 9.5
2011-07-20 07:58:37 51°20.523 3°1.248 71.5 11.2 69 9.5
2011-07-20 07:58:43 51°20.53 3°1.275 71 11.3 67 9.4
2011-07-20 07:58:47 51°20.535 3°1.294 70.3 11.2 68 9.5
2011-07-20 07:58:52 51°20.541 3°1.317 70.9 11.3 70 9.6
2011-07-20 07:58:57 51°20.547 3°1.34 70.9 11.3 67 9.5
2011-07-20 07:59:03 51°20.553 3°1.368 70.4 11.2 70 9.5
2011-07-20 07:59:07 51°20.558 3°1.386 70.9 11.2 68 9.6
2011-07-20 07:59:12 51°20.564 3°1.409 70.5 11.3 68 9.6
2011-07-20 07:59:17 51°20.57 3°1.432 70.5 11.3 68 9.5
2011-07-20 07:59:22 51°20.576 3°1.455 69.9 11.2 67 9.5
2011-07-20 07:59:28 51°20.583 3°1.482 69.5 11.2 66 9.5
2011-07-20 07:59:32 51°20.588 3°1.5 69.3 11.1 68 9.6
2011-07-20 07:59:37 51°20.594 3°1.523 69.7 11.2 68 9.5
2011-07-20 07:59:43 51°20.601 3°1.551 69.9 11.2 67 9.4
2011-07-20 07:59:48 51°20.608 3°1.573 69.8 11.2 66 9.3
2011-07-20 07:59:52 51°20.613 3°1.591 69.5 11.2 67 9.4
2011-07-20 07:59:57 51°20.619 3°1.614 69.1 11.2 66 9.4
2011-07-20 08:00:02 51°20.625 3°1.637 68.9 11.2 65 9.3
2011-07-20 08:00:08 51°20.633 3°1.664 68.9 11.2 67 9.4
2011-07-20 08:00:12 51°20.638 3°1.682 68.8 11.2 66 9.4
2011-07-20 08:00:17 51°20.644 3°1.704 68.9 11.2 66 9.4
2011-07-20 08:00:22 51°20.651 3°1.727 69 11.1 67 9.4
2011-07-20 08:00:27 51°20.657 3°1.749 69.4 11.2 66 9.4
2011-07-20 08:00:32 51°20.663 3°1.772 70.1 11.1 67 9.4
2011-07-20 08:00:37 51°20.669 3°1.793 70.1 10.6 63 9.5
2011-07-20 08:00:42 51°20.678 3°1.811 64.3 10.1 53 9.6
2011-07-20 08:00:47 51°20.687 3°1.827 57.7 9.8 47 9.7
2011-07-20 08:00:52 51°20.697 3°1.84 50.6 9.5 39 9.7
2011-07-20 08:00:56 51°20.706 3°1.849 43.6 9.1 31 9.6
2011-07-20 08:01:02 51°20.72 3°1.859 37.1 8.9 23 9.9
2011-07-20 08:01:07 51°20.731 3°1.864 30.5 8.8 16 9.9
2011-07-20 08:01:12 51°20.743 3°1.867 23.9 8.7 11 9.8
2011-07-20 08:01:16 51°20.753 3°1.869 18.2 8.5 1 9.9
2011-07-20 08:01:22 51°20.767 3°1.866 10.2 8.4 352 9.8
2011-07-20 08:01:28 51°20.78 3°1.86 1.7 8.4 343 9.8
2011-07-20 08:01:32 51°20.788 3°1.854 352.9 8.4 336 9.8
2011-07-20 08:01:36 51°20.796 3°1.846 344.2 8.5 325 10.1
2011-07-20 08:01:42 51°20.807 3°1.831 335.2 8.6 316 10
2011-07-20 08:01:48 51°20.816 3°1.813 326 8.7 308 10
2011-07-20 08:01:52 51°20.821 3°1.799 316.6 8.8 301 9.9
2011-07-20 08:01:57 51°20.826 3°1.78 307.3 9 291 10.1
2011-07-20 08:02:02 51°20.829 3°1.761 297.9 9.2 284 10
2011-07-20 08:02:08 51°20.831 3°1.736 289.3 9.3 277 10
2011-07-20 08:02:12 51°20.832 3°1.72 281.2 9.4 272 10.1
2011-07-20 08:02:17 51°20.831 3°1.699 273.2 9.6 264 10
2011-07-20 08:02:22 51°20.828 3°1.678 265.1 9.7 257 10.1
2011-07-20 08:02:27 51°20.823 3°1.657 257.7 9.6 250 10.1
2011-07-20 08:02:32 51°20.817 3°1.638 249.6 9.7 245 10.1
2011-07-20 08:02:37 51°20.81 3°1.62 242 9.6 237 10.1
2011-07-20 08:02:42 51°20.802 3°1.603 234.1 9.6 231 10
2011-07-20 08:02:47 51°20.793 3°1.588 226.4 9.7 225 10
2011-07-20 08:02:52 51°20.782 3°1.573 220.7 9.8 222 10
2011-07-20 08:02:57 51°20.772 3°1.56 216 9.8 217 9.9
2011-07-20 08:03:02 51°20.76 3°1.548 211.9 10 215 10
2011-07-20 08:03:07 51°20.749 3°1.535 210 10.1 214 9.8
2011-07-20 08:03:12 51°20.737 3°1.523 209 10.3 213 9.9
2011-07-20 08:03:17 51°20.724 3°1.51 207.8 10.5 213 9.9
2011-07-20 08:03:22 51°20.712 3°1.498 207.8 10.5 211 9.8
2011-07-20 08:03:27 51°20.699 3°1.486 206.8 10.6 212 9.9
2011-07-20 08:03:32 51°20.687 3°1.473 206.8 10.6 211 9.7
2011-07-20 08:03:36 51°20.677 3°1.464 205.6 10.8 210 9.8
2011-07-20 08:03:42 51°20.661 3°1.449 205.5 10.9 211 9.8
2011-07-20 08:03:47 51°20.648 3°1.437 205.7 10.8 211 9.8
2011-07-20 08:03:52 51°20.636 3°1.424 207.4 10.8 214 9.9
2011-07-20 08:03:56 51°20.626 3°1.412 210.5 11 215 9.8
2011-07-20 08:04:02 51°20.611 3°1.395 212.6 11.1 218 9.8
2011-07-20 08:04:08 51°20.597 3°1.378 214.1 10.8 215 9.8
2011-07-20 08:04:12 51°20.587 3°1.367 210.9 10.8 213 9.7
2011-07-20 08:04:16 51°20.577 3°1.357 208.6 10.9 213 9.7
2011-07-20 08:04:22 51°20.562 3°1.341 208.4 10.8 213 9.6
2011-07-20 08:04:28 51°20.546 3°1.326 208.3 10.8 211 9.5
2011-07-20 08:04:32 51°20.536 3°1.316 207.4 10.9 212 9.6
2011-07-20 08:04:37 51°20.523 3°1.304 207.8 10.7 211 9.5
2011-07-20 08:04:42 51°20.511 3°1.291 206.9 10.7 212 9.5
2011-07-20 08:04:47 51°20.498 3°1.279 207.2 10.5 211 9.4
2011-07-20 08:04:52 51°20.486 3°1.267 206.5 10.2 211 9.6
2011-07-20 08:04:57 51°20.475 3°1.256 207.7 9.2 212 9.4
2011-07-20 08:05:03 51°20.463 3°1.243 207.5 8.8 214 9.5
2011-07-20 08:05:07 51°20.455 3°1.234 208.7 8.3 215 9.5
2011-07-20 08:05:12 51°20.447 3°1.224 210.3 7.9 216 9.5
2011-07-20 08:05:17 51°20.439 3°1.214 211.6 7.5 219 9.4
2011-07-20 08:05:23 51°20.429 3°1.202 213.9 7.1 219 9.5
2011-07-20 08:05:27 51°20.424 3°1.193 215.7 6.8 222 9.5
2011-07-20 08:05:32 51°20.417 3°1.184 217.6 6.6 222 9.5
2011-07-20 08:05:37 51°20.411 3°1.174 219.1 6.2 225 9.4
2011-07-20 08:05:43 51°20.404 3°1.163 218.6 5.9 223 9.5
2011-07-20 08:05:47 51°20.399 3°1.156 218.6 5.7 225 9.5
2011-07-20 08:05:52 51°20.394 3°1.147 219.4 5.5 225 9.5
2011-07-20 08:05:57 51°20.389 3°1.138 220.7 5.3 227 9.5
2011-07-20 08:06:03 51°20.383 3°1.128 222 5.1 228 9.4
2011-07-20 08:06:07 51°20.379 3°1.122 223.1 4.9 228 9.6
2011-07-20 08:06:12 51°20.375 3°1.113 224.7 4.8 230 9.3
2011-07-20 08:06:16 51°20.372 3°1.107 225.3 4.8 229 9.6
2011-07-20 08:06:22 51°20.367 3°1.097 225.5 4.7 232 9.3
2011-07-20 08:06:27 51°20.363 3°1.089 225.6 4.8 230 9.4
2011-07-20 08:06:32 51°20.359 3°1.08 225.8 4.8 233 9.3
2011-07-20 08:06:36 51°20.355 3°1.074 226.2 4.9 231 9.4
2011-07-20 08:06:42 51°20.35 3°1.063 227.2 4.9 234 9.4
2011-07-20 08:06:48 51°20.345 3°1.052 228.1 5 232 9.5
2011-07-20 08:06:52 51°20.342 3°1.045 229.2 5.1 236 9.4
2011-07-20 08:06:56 51°20.339 3°1.037 230.2 5.1 234 9.3
2011-07-20 08:07:02 51°20.334 3°1.026 231.3 5.2 238 9.4
2011-07-20 08:07:08 51°20.329 3°1.014 232.7 5.3 236 9.4
2011-07-20 08:07:12 51°20.326 3°1.006 234.1 5.4 239 9.5
2011-07-20 08:07:17 51°20.322 3°0.995 235.3 5.5 239 9.5
2011-07-20 08:07:22 51°20.319 3°0.985 236.3 5.5 241 9.5
2011-07-20 08:07:27 51°20.315 3°0.974 237.5 5.6 241 9.5
2011-07-20 08:07:32 51°20.311 3°0.962 239.4 5.7 243 9.4
2011-07-20 08:07:37 51°20.308 3°0.951 240.9 5.7 243 9.5
2011-07-20 08:07:43 51°20.304 3°0.937 242.2 5.8 244 9.6
2011-07-20 08:07:47 51°20.301 3°0.928 242.8 5.8 245 9.4
2011-07-20 08:07:52 51°20.298 3°0.916 243.3 5.8 245 9.4
2011-07-20 08:07:57 51°20.294 3°0.904 243.6 5.9 245 9.3
2011-07-20 08:08:03 51°20.29 3°0.889 244 6 246 9.3
2011-07-20 08:08:07 51°20.287 3°0.88 243.9 6 245 9.4
2011-07-20 08:08:12 51°20.283 3°0.867 244 6.3 245 9.3
2011-07-20 08:08:17 51°20.279 3°0.853 244 7 244 9.3
2011-07-20 08:08:23 51°20.274 3°0.835 243.8 7.4 245 9.2
2011-07-20 08:08:27 51°20.271 3°0.823 243.6 7.8 244 9.3
2011-07-20 08:08:32 51°20.266 3°0.807 243.6 8.1 245 9.2
2011-07-20 08:08:37 51°20.261 3°0.79 243.7 8.5 244 9.3
2011-07-20 08:08:42 51°20.256 3°0.772 243.3 8.7 245 9.2
2011-07-20 08:08:48 51°20.249 3°0.751 243.1 8.9 243 9.3
2011-07-20 08:08:52 51°20.244 3°0.737 242.6 9 243 9.3
2011-07-20 08:08:56 51°20.24 3°0.722 242 9.3 242 9.4
2011-07-20 08:09:02 51°20.232 3°0.7 241.7 9.4 242 9.3
2011-07-20 08:09:07 51°20.226 3°0.681 241.4 9.5 242 9.3
2011-07-20 08:09:12 51°20.22 3°0.662 241.1 9.6 242 9.4
2011-07-20 08:09:16 51°20.215 3°0.647 240.5 9.7 242 9.4
2011-07-20 08:09:22 51°20.208 3°0.624 241.1 9.8 243 9.3
2011-07-20 08:09:27 51°20.202 3°0.604 242.3 9.9 245 9.3
2011-07-20 08:09:32 51°20.196 3°0.584 244.2 10 247 9.2
2011-07-20 08:09:36 51°20.192 3°0.567 246.2 10 248 9.3
2011-07-20 08:09:42 51°20.186 3°0.542 248.4 10 250 9.3
2011-07-20 08:09:48 51°20.181 3°0.517 250.4 10 253 9.3
2011-07-20 08:09:52 51°20.178 3°0.499 252.8 10.1 254 9.3
2011-07-20 08:09:57 51°20.175 3°0.478 255 10.1 257 9.3